ADDS METAR Data INFO
IDs: Format: Raw Decoded Include TAF

Data at: 0324 UTC 16 Dec 2017

KGPZ 160305Z AUTO 00000KT 1 3/4SM -SN BR BKN022 BKN029 OVC045 M10/M12 A2973 RMK AO2 P0000 FZRANO
KGPZ 160256Z AUTO 00000KT 3SM -SN FEW024 BKN031 OVC044 M10/M13 A2973 RMK AO2 SLP100 P0000 60000 T11001128 55000 FZRANO TSNO
KGPZ 160248Z AUTO 00000KT 4SM -SN FEW023 BKN036 OVC044 M10/M13 A2973 RMK AO2 P0000 FZRANO
KGPZ 160156Z AUTO 00000KT 9SM -SN OVC023 M10/M13 A2973 RMK AO2 SNE16B37 SLP099 P0000 T11001133 FZRANO
KGPZ 160056Z AUTO 00000KT 9SM -SN OVC025 M10/M13 A2973 RMK AO2 SLP100 P0000 T11001133 FZRANO
KGPZ 152356Z AUTO 00000KT 8SM -SN OVC029 M10/M13 A2973 RMK AO2 SLP100 P0000 60000 T11001133 11067 21100 56004 FZRANO
KGPZ 152256Z AUTO 00000KT 9SM -SN OVC033 M10/M14 A2974 RMK AO2 SNB06 SLP102 P0000 T11001139 FZRANO
KGPZ 152156Z AUTO 00000KT 10SM OVC037 M10/M14 A2974 RMK AO2 SLP101 T11001144 FZRANO
KGPZ 152056Z AUTO 00000KT 10SM OVC080 M09/M15 A2975 RMK AO2 SLP103 T10941150 56021 FZRANO
KGPZ 151956Z AUTO 21004KT 10SM OVC080 M09/M15 A2976 RMK AO2 SLP107 T10941150 FZRANO
KGPZ 151856Z AUTO 20003KT 10SM OVC085 M09/M15 A2979 RMK AO2 SLP119 T10941150 FZRANO
KGPZ 151756Z AUTO 21003KT 10SM FEW013 OVC085 M08/M15 A2981 RMK AO2 SNB16E48 SLP124 P0000 60000 T10781150 11050 21139 56014 FZRANO
KGPZ 151754Z AUTO 21005KT 10SM FEW013 OVC085 M07/M15 A2981 RMK AO2 SNB16E48 P0000 FZRANO
KGPZ 151656Z AUTO 31003KT 9SM OVC013 M08/M13 A2985 RMK AO2 SNE49 SLP137 P0000 T10781128 FZRANO
KGPZ 151556Z AUTO 23005KT 9SM -SN OVC013 M13/M16 A2985 RMK AO2 SLP142 P0000 T11281156 FZRANO
KGPZ 151456Z AUTO 28005KT 6SM -SN BR OVC013 M13/M16 A2985 RMK AO2 SLP141 P0000 60000 T11331156 56008 FZRANO
KGPZ 151356Z AUTO 34007KT 9SM -SN OVC011 M14/M16 A2985 RMK AO2 SLP143 P0000 T11391161 FZRANO
KGPZ 151256Z AUTO 33007KT 9SM -SN OVC013 M13/M16 A2986 RMK AO2 SLP144 P0000 T11331156 FZRANO
KGPZ 151242Z AUTO 35007KT 9SM -SN OVC013 M13/M16 A2986 RMK AO2 P0000 FZRANO
KGPZ 151156Z AUTO 31007KT 9SM -SN OVC015 M12/M15 A2988 RMK AO2 SLP148 P0000 60000 T11221150 11106 21122 56006 FZRANO
KGPZ 151056Z AUTO 29007KT 9SM -SN OVC017 M12/M15 A2988 RMK AO2 SLP151 P0000 T11221150 FZRANO
KGPZ 150956Z AUTO 31007KT 9SM -SN OVC017 M12/M15 A2988 RMK AO2 SLP149 P0000 T11171150 FZRANO
KGPZ 150856Z AUTO 30010KT 9SM -SN OVC017 M11/M14 A2989 RMK AO2 SLP153 P0000 60000 T11111139 55000 FZRANO
KGPZ 150756Z AUTO 30008KT 9SM -SN OVC017 M11/M13 A2989 RMK AO2 SLP151 P0000 T11061133 FZRANO
KGPZ 150730Z AUTO 32013KT 9SM -SN OVC015 M11/M13 A2989 RMK AO2 P0000 FZRANO
KGPZ 150656Z AUTO 32010G17KT 9SM -SN OVC013 M11/M13 A2989 RMK AO2 SLP152 P0000 T11061128 FZRANO
KGPZ 150646Z AUTO 32009KT 9SM -SN OVC013 M11/M13 A2990 RMK AO2 P0000 FZRANO
KGPZ 150556Z AUTO 31012KT 9SM -SN OVC020 M11/M13 A2991 RMK AO2 SLP157 P0000 60000 T11061128 11100 21106 410781106 58006 FZRANO
KGPZ 150456Z AUTO 31010KT 9SM -SN SCT017 OVC028 M11/M13 A2992 RMK AO2 SLP162 P0000 T11061133 FZRANO
KGPZ 150356Z AUTO 31011KT 9SM -SN FEW016 SCT033 OVC041 M11/M13 A2993 RMK AO2 SLP165 P0000 T11061133 FZRANO
KGPZ 150314Z AUTO 31011KT 9SM -SN SCT018 OVC033 M11/M13 A2994 RMK AO2 P0000 FZRANO
KGPZ 150256Z AUTO 30010KT 9SM -SN BKN018 OVC035 M11/M13 A2994 RMK AO2 SLP169 P0000 60000 T11061133 58007 FZRANO
KGPZ 150233Z AUTO 31012KT 9SM -SN BKN018 OVC039 M11/M13 A2995 RMK AO2 P0000 FZRANO
KGPZ 150156Z AUTO 31012KT 9SM -SN FEW016 OVC039 M11/M14 A2995 RMK AO2 SLP173 P0000 T11061139 FZRANO
KGPZ 150056Z AUTO 31009KT 9SM -SN OVC020 M10/M13 A2996 RMK AO2 SLP175 P0000 T11001128 FZRANO
KGPZ 142356Z AUTO 32010KT 9SM -SN OVC022 M09/M13 A2996 RMK AO2 SLP176 P0000 60000 T10941133 11078 21094 51002 FZRANO
KGPZ 142256Z AUTO 31011KT 9SM -SN OVC022 M09/M13 A2996 RMK AO2 SLP176 P0000 T10941133 FZRANO
KGPZ 142156Z AUTO 31012KT 9SM -SN OVC022 M09/M13 A2996 RMK AO2 SLP174 P0000 T10891128 FZRANO
KGPZ 142056Z AUTO 31009KT 6SM -SN OVC020 M08/M12 A2995 RMK AO2 SLP172 P0000 60000 T10831122 55008 FZRANO
KGPZ 141956Z AUTO 31010KT 9SM -SN OVC018 M08/M12 A2995 RMK AO2 SLP172 P0000 T10831122 FZRANO
KGPZ 141856Z AUTO 28006KT 7SM -SN OVC018 M08/M12 A2997 RMK AO2 SLP176 P0000 T10781117 FZRANO
KGPZ 141756Z AUTO 30008KT 5SM -SN BKN018 OVC041 M08/M12 A2998 RMK AO2 SLP181 P0000 60000 T10781122 11078 21106 58004 FZRANO
KGPZ 141716Z AUTO 28007KT 9SM -SN BKN016 BKN039 OVC045 M08/M12 A2998 RMK AO2 P0000 FZRANO
KGPZ 141656Z AUTO 30005KT 9SM -SN SCT014 OVC049 M08/M12 A2999 RMK AO2 SLP183 P0000 T10831117 FZRANO
KGPZ 141621Z AUTO 27005KT 3SM -SN SCT018 BKN022 OVC029 M09/M12 A2999 RMK AO2 P0000 FZRANO
KGPZ 141556Z AUTO 29004KT 2SM -SN BR BKN020 OVC029 M09/M12 A2999 RMK AO2 VIS 1 1/2V4 SLP186 P0000 T10941117 FZRANO
KGPZ 141543Z AUTO 29004KT 2 1/2SM -SN BR SCT022 OVC031 M09/M12 A2999 RMK AO2 P0000 FZRANO
KGPZ 141531Z AUTO 29004KT 1 3/4SM -SN BR SCT022 BKN029 OVC034 M10/M12 A2999 RMK AO2 P0000 FZRANO